Time;durP1;ratioP1;P1;durP2;ratioP2;P2;SDS_P1;SDS_P2;PMS_P1;PMS_P2;Temp;Humidity;BMP_temperature;BMP_pressure;BME280_temperature;BME280_humidity;BME280_pressure;Samples;Min_cycle;Max_cycle;Signal;HPM_P1;HPM_P2
2021/01/29 00:01:33;;;;;;;28.20;16.10;;;19.20;39.30;;;;;;5132109;27;20480;-62
2021/01/29 00:03:59;;;;;;;31.27;15.57;;;19.20;37.80;;;;;;5131564;27;20064;-63
2021/01/29 00:06:26;;;;;;;33.38;16.75;;;19.30;38.10;;;;;;5126798;27;20423;-63
2021/01/29 00:08:52;;;;;;;32.78;14.63;;;19.40;37.50;;;;;;5128029;27;20042;-62
2021/01/29 00:11:19;;;;;;;32.58;14.70;;;19.40;37.40;;;;;;5116943;27;20051;-64
2021/01/29 00:13:45;;;;;;;29.08;17.52;;;19.50;37.50;;;;;;5120021;27;20073;-61
2021/01/29 00:16:12;;;;;;;29.65;15.30;;;20.20;37.20;;;;;;5115282;27;20031;-63
2021/01/29 00:18:38;;;;;;;36.65;16.63;;;21.00;34.80;;;;;;5132982;27;20030;-63
2021/01/29 00:21:05;;;;;;;38.42;16.52;;;21.60;34.60;;;;;;5125165;27;20034;-64
2021/01/29 00:23:32;;;;;;;36.00;16.83;;;22.50;32.00;;;;;;5130307;27;20039;-65
2021/01/29 00:25:58;;;;;;;36.08;16.08;;;21.90;31.90;;;;;;5129731;27;20023;-63
2021/01/29 00:28:25;;;;;;;35.50;17.40;;;21.00;33.90;;;;;;5106179;27;20020;-63
2021/01/29 00:30:54;;;;;;;25.70;16.77;;;20.40;35.40;;;;;;5126804;27;20043;-64
2021/01/29 00:33:24;;;;;;;38.30;17.90;;;20.00;37.00;;;;;;5124645;27;20377;-61
2021/01/29 00:35:51;;;;;;;42.72;18.80;;;19.70;37.80;;;;;;5119945;27;20011;-63
2021/01/29 00:38:17;;;;;;;40.47;18.73;;;19.50;38.30;;;;;;5132852;27;20043;-65
2021/01/29 00:40:44;;;;;;;38.10;17.80;;;19.20;39.00;;;;;;5126048;27;20027;-65
2021/01/29 00:43:11;;;;;;;37.22;17.98;;;19.10;39.50;;;;;;5130507;27;20018;-63
2021/01/29 00:45:39;;;;;;;35.10;18.38;;;18.90;39.90;;;;;;5130733;27;20058;-63
2021/01/29 00:48:07;;;;;;;30.35;17.52;;;18.80;40.30;;;;;;5113917;27;20020;-62
2021/01/29 00:50:35;;;;;;;37.75;18.65;;;18.70;40.30;;;;;;5121376;27;20029;-62
2021/01/29 00:53:02;;;;;;;39.50;18.92;;;18.60;40.90;;;;;;5119184;27;20069;-62
2021/01/29 00:55:28;;;;;;;31.02;18.13;;;18.60;41.30;;;;;;5129470;27;20070;-63
2021/01/29 00:57:55;;;;;;;34.50;17.77;;;18.50;41.40;;;;;;5104933;27;20034;-63
2021/01/29 01:00:22;;;;;;;32.28;16.90;;;18.40;41.90;;;;;;5120740;27;20031;-62
2021/01/29 01:02:49;;;;;;;45.17;19.23;;;18.40;42.40;;;;;;5133245;27;20015;-62
2021/01/29 01:05:17;;;;;;;38.05;19.67;;;18.30;42.80;;;;;;5133325;27;20019;-62
2021/01/29 01:07:44;;;;;;;39.42;17.38;;;18.20;43.40;;;;;;5120920;27;20027;-63
2021/01/29 01:10:13;;;;;;;41.08;19.20;;;18.00;42.60;;;;;;5126674;27;20510;-62
2021/01/29 01:12:39;;;;;;;36.25;17.98;;;18.00;43.20;;;;;;5108541;28;20107;-63
2021/01/29 01:15:22;;;;;;;47.80;21.20;;;18.00;43.40;;;;;;5111430;28;20160;-62
2021/01/29 01:17:51;;;;;;;39.80;20.35;;;17.90;43.70;;;;;;5111821;27;20131;-63
2021/01/29 01:20:20;;;;;;;40.88;21.50;;;17.70;44.10;;;;;;5114737;27;20036;-63
2021/01/29 01:22:47;;;;;;;43.92;18.90;;;17.70;44.60;;;;;;5111729;27;20471;-62
2021/01/29 01:25:14;;;;;;;44.25;19.08;;;17.60;44.90;;;;;;5124554;27;20543;-62
2021/01/29 01:27:41;;;;;;;42.97;19.42;;;17.60;45.30;;;;;;5133024;27;20049;-63
2021/01/29 01:30:11;;;;;;;41.88;19.25;;;17.50;45.60;;;;;;5122651;27;20051;-61
2021/01/29 01:32:38;;;;;;;43.15;22.00;;;17.40;46.20;;;;;;5112549;27;20011;-62
2021/01/29 01:35:06;;;;;;;43.28;22.23;;;17.40;46.40;;;;;;5116507;27;20386;-62
2021/01/29 01:37:32;;;;;;;49.67;20.33;;;17.40;47.00;;;;;;5122113;27;20102;-63
2021/01/29 01:39:59;;;;;;;;;;;17.20;47.30;;;;;;5128707;27;20087;-63
2021/01/29 01:42:27;;;;;;;51.95;20.90;;;17.20;47.70;;;;;;5114050;28;19919;-63
2021/01/29 01:44:53;;;;;;;;;;;17.10;47.10;;;;;;5131848;27;20632;-60
2021/01/29 01:47:39;;;;;;;47.63;20.00;;;17.00;47.20;;;;;;5104903;28;19949;-64
2021/01/29 01:50:30;;;;;;;59.80;22.25;;;17.00;48.20;;;;;;5130828;28;20019;-62
2021/01/29 01:52:57;;;;;;;55.40;19.90;;;16.90;48.10;;;;;;5128133;28;20012;-62
2021/01/29 01:55:29;;;;;;;44.15;19.05;;;16.90;48.40;;;;;;5132099;28;20049;-64
2021/01/29 01:57:57;;;;;;;58.03;20.30;;;16.80;48.40;;;;;;5124270;28;20019;-63
2021/01/29 02:00:30;;;;;;;50.80;20.90;;;16.80;48.70;;;;;;5124412;28;20034;-61
2021/01/29 02:03:06;;;;;;;47.97;18.60;;;16.70;49.00;;;;;;5131508;28;20019;-61
2021/01/29 02:05:36;;;;;;;49.60;18.13;;;16.70;49.20;;;;;;5112060;28;20036;-62
2021/01/29 02:08:06;;;;;;;37.40;17.67;;;16.70;49.20;;;;;;5112964;28;20024;-62
2021/01/29 02:10:33;;;;;;;40.88;17.17;;;16.60;49.50;;;;;;5118928;28;20032;-63
2021/01/29 02:13:01;;;;;;;46.20;18.00;;;16.50;50.30;;;;;;5121703;28;20056;-62
2021/01/29 02:15:32;;;;;;;40.22;17.20;;;16.40;50.80;;;;;;5113629;28;20402;-62
2021/01/29 02:18:17;;;;;;;45.33;18.20;;;16.40;51.40;;;;;;5110165;28;20107;-63
2021/01/29 02:21:11;;;;;;;58.72;17.90;;;16.40;51.70;;;;;;5107779;28;20043;-62
2021/01/29 02:23:59;;;;;;;42.58;17.33;;;16.30;52.80;;;;;;5126041;28;20015;-62
2021/01/29 02:26:47;;;;;;;46.47;18.42;;;16.20;53.10;;;;;;5129588;28;20113;-62
2021/01/29 02:29:32;;;;;;;48.10;18.35;;;16.10;53.10;;;;;;5113924;28;20460;-63
2021/01/29 02:32:35;;;;;;;51.35;18.65;;;16.10;53.90;;;;;;5125700;28;20031;-63
2021/01/29 02:35:39;;;;;;;50.78;17.40;;;16.00;54.50;;;;;;5132774;28;20586;-62
2021/01/29 02:38:37;;;;;;;40.05;17.77;;;15.90;54.70;;;;;;5132287;28;20482;-63
2021/01/29 02:41:07;;;;;;;41.15;16.90;;;15.90;54.80;;;;;;5113531;28;20043;-61
2021/01/29 02:44:21;;;;;;;39.25;18.67;;;15.80;55.10;;;;;;5115292;27;20035;-63
2021/01/29 02:46:53;;;;;;;54.30;19.55;;;15.80;55.50;;;;;;5124151;27;20019;-64
2021/01/29 02:49:35;;;;;;;59.78;21.55;;;15.70;55.70;;;;;;5120935;27;20440;-63
2021/01/29 02:52:25;;;;;;;59.58;21.10;;;15.70;56.00;;;;;;5126929;27;20443;-64
2021/01/29 02:55:02;;;;;;;60.50;22.17;;;15.70;55.80;;;;;;5114041;27;20030;-64
2021/01/29 02:57:37;;;;;;;52.25;22.67;;;15.60;56.20;;;;;;5125228;27;20524;-63
2021/01/29 03:00:25;;;;;;;73.65;24.00;;;15.50;56.40;;;;;;5136371;27;20027;-62
2021/01/29 03:03:12;;;;;;;58.97;24.30;;;15.60;56.70;;;;;;5108038;27;20030;-62
2021/01/29 03:05:49;;;;;;;67.97;24.90;;;15.50;55.90;;;;;;5132553;27;20019;-63
2021/01/29 03:08:33;;;;;;;61.67;25.88;;;15.50;55.90;;;;;;5128027;27;20031;-63
2021/01/29 03:11:29;;;;;;;63.67;25.15;;;15.40;55.60;;;;;;5111223;27;20063;-63
2021/01/29 03:14:09;;;;;;;70.40;25.13;;;15.50;55.60;;;;;;5124680;27;20023;-63
2021/01/29 03:16:44;;;;;;;67.97;25.60;;;15.40;56.30;;;;;;5122703;27;20030;-63
2021/01/29 03:19:32;;;;;;;56.92;23.77;;;15.40;56.80;;;;;;5113199;27;20024;-63
2021/01/29 03:22:14;;;;;;;68.03;25.67;;;15.30;57.20;;;;;;5129020;27;20023;-64
2021/01/29 03:24:50;;;;;;;59.20;24.88;;;15.30;57.50;;;;;;5135685;27;20030;-63
2021/01/29 03:27:40;;;;;;;61.08;25.77;;;15.30;57.70;;;;;;5131084;27;20011;-62
2021/01/29 03:30:16;;;;;;;73.78;27.30;;;15.20;58.00;;;;;;5112257;27;20031;-63
2021/01/29 03:32:47;;;;;;;75.03;27.70;;;15.20;58.40;;;;;;5124183;27;20015;-63
2021/01/29 03:35:20;;;;;;;84.72;30.67;;;15.20;58.60;;;;;;5132669;27;20079;-61
2021/01/29 03:38:13;;;;;;;90.13;34.53;;;15.20;58.70;;;;;;5125453;27;20023;-62
2021/01/29 03:40:44;;;;;;;110.38;37.63;;;15.10;58.30;;;;;;5121909;27;20047;-63
2021/01/29 03:43:22;;;;;;;84.03;35.22;;;15.10;58.50;;;;;;5123602;27;20106;-63
2021/01/29 03:46:14;;;;;;;75.72;35.80;;;15.10;58.60;;;;;;5127624;27;20148;-62
2021/01/29 03:49:10;;;;;;;70.53;32.88;;;15.10;59.00;;;;;;5129246;27;20061;-62
2021/01/29 03:51:49;;;;;;;88.97;34.00;;;15.10;59.20;;;;;;5114562;27;20030;-63
2021/01/29 03:54:48;;;;;;;89.18;33.88;;;15.00;59.30;;;;;;5127913;27;20425;-61
2021/01/29 03:57:21;;;;;;;92.25;34.90;;;15.00;59.50;;;;;;5123084;27;20078;-63
2021/01/29 04:00:04;;;;;;;97.20;34.10;;;15.00;60.30;;;;;;5127435;27;20038;-63
2021/01/29 04:02:52;;;;;;;83.20;32.25;;;15.00;60.60;;;;;;5128939;27;20444;-63
2021/01/29 04:05:18;;;;;;;79.85;33.03;;;14.90;61.00;;;;;;5131725;27;20440;-64
2021/01/29 04:07:47;;;;;;;;;;;14.90;61.20;;;;;;5133291;27;20425;-62
2021/01/29 04:10:16;;;;;;;91.85;34.65;;;14.80;62.20;;;;;;5132682;27;19914;-63
2021/01/29 04:13:01;;;;;;;82.70;32.90;;;14.80;62.30;;;;;;5130157;27;20034;-62
2021/01/29 04:15:37;;;;;;;78.45;31.42;;;14.80;63.20;;;;;;5122515;27;20483;-62
2021/01/29 04:18:19;;;;;;;82.35;32.53;;;14.80;63.20;;;;;;5113819;27;20500;-63
2021/01/29 04:20:46;;;;;;;89.05;33.53;;;14.80;63.20;;;;;;5126523;27;20039;-63
2021/01/29 04:23:23;;;;;;;94.38;32.60;;;14.70;62.80;;;;;;5108801;27;20069;-62
2021/01/29 04:26:01;;;;;;;83.25;33.22;;;14.70;63.30;;;;;;5133032;27;20031;-63
2021/01/29 04:28:31;;;;;;;84.30;31.52;;;14.60;63.90;;;;;;5134355;27;20023;-63
2021/01/29 04:31:02;;;;;;;92.00;33.83;;;14.60;64.50;;;;;;5127435;27;20027;-63
2021/01/29 04:33:39;;;;;;;80.20;31.80;;;14.50;64.10;;;;;;5120852;27;20038;-63
2021/01/29 04:36:08;;;;;;;90.77;32.93;;;14.60;64.80;;;;;;5119689;27;20023;-63
2021/01/29 04:38:35;;;;;;;78.10;32.63;;;14.50;65.50;;;;;;5112690;27;20280;-63
2021/01/29 04:41:10;;;;;;;90.10;33.38;;;14.50;65.50;;;;;;5109181;27;20035;-62
2021/01/29 04:43:57;;;;;;;94.60;33.42;;;14.50;65.80;;;;;;5133789;27;20044;-63
2021/01/29 04:46:54;;;;;;;88.30;33.28;;;14.50;66.40;;;;;;5105338;27;20115;-62
2021/01/29 04:49:31;;;;;;;92.90;34.10;;;14.40;65.50;;;;;;5108098;27;20027;-64
2021/01/29 04:52:34;;;;;;;79.28;30.50;;;14.40;66.20;;;;;;5128796;27;20123;-62
2021/01/29 04:55:22;;;;;;;81.00;29.38;;;14.40;65.30;;;;;;5119829;27;20027;-62
2021/01/29 04:58:08;;;;;;;79.13;30.05;;;14.40;64.40;;;;;;5111097;27;20082;-62
2021/01/29 05:00:50;;;;;;;81.93;28.70;;;14.40;63.80;;;;;;5130391;27;20043;-62
2021/01/29 05:03:52;;;;;;;70.32;26.90;;;14.30;62.60;;;;;;5115151;27;20024;-62
2021/01/29 05:06:49;;;;;;;60.00;25.17;;;14.40;62.40;;;;;;5125795;27;20114;-61
2021/01/29 05:10:07;;;;;;;70.65;25.05;;;14.30;61.60;;;;;;5120191;27;20027;-64
2021/01/29 05:12:48;;;;;;;64.97;23.20;;;14.30;61.40;;;;;;5045973;28;20469;-62
2021/01/29 05:15:45;;;;;;;60.88;21.80;;;14.30;60.90;;;;;;5124301;27;20015;-64
2021/01/29 05:18:45;;;;;;;52.85;19.83;;;14.30;60.60;;;;;;5118518;27;20032;-63
2021/01/29 05:21:30;;;;;;;57.15;20.95;;;14.30;59.20;;;;;;5124706;27;20107;-63
2021/01/29 05:24:32;;;;;;;49.53;18.08;;;14.30;58.80;;;;;;5132092;27;20019;-63
2021/01/29 05:27:33;;;;;;;37.45;15.55;;;14.30;58.20;;;;;;5119462;27;20047;-64
2021/01/29 05:30:29;;;;;;;38.92;15.02;;;14.30;57.30;;;;;;5132004;27;20096;-63
2021/01/29 05:33:26;;;;;;;37.42;12.00;;;14.30;57.10;;;;;;5133322;27;20080;-62
2021/01/29 05:36:27;;;;;;;21.75;10.30;;;14.30;56.60;;;;;;5112075;27;20069;-62
2021/01/29 05:39:06;;;;;;;27.77;10.30;;;14.30;56.30;;;;;;5105243;28;20071;-63
2021/01/29 05:41:44;;;;;;;32.58;10.00;;;14.30;56.60;;;;;;5116519;28;20487;-63
2021/01/29 05:44:52;;;;;;;26.35;9.07;;;14.30;56.70;;;;;;5121483;27;20031;-63
2021/01/29 05:47:37;;;;;;;33.92;9.52;;;14.40;56.70;;;;;;5119611;28;20049;-64
2021/01/29 05:50:31;;;;;;;29.52;9.40;;;14.40;56.90;;;;;;5118059;28;20022;-62
2021/01/29 05:53:18;;;;;;;35.28;9.00;;;14.40;57.30;;;;;;5106851;28;20019;-63
2021/01/29 05:56:01;;;;;;;22.98;9.07;;;14.30;57.40;;;;;;5130257;28;20050;-63
2021/01/29 05:58:49;;;;;;;23.90;9.25;;;14.30;57.50;;;;;;5115299;28;20031;-64
2021/01/29 06:01:42;;;;;;;24.52;8.95;;;14.30;58.30;;;;;;5097548;28;20044;-63
2021/01/29 06:04:50;;;;;;;16.92;8.27;;;14.30;57.80;;;;;;5110229;28;20102;-62
2021/01/29 06:07:17;;;;;;;32.65;9.25;;;14.30;58.10;;;;;;5083561;28;20031;-63
2021/01/29 06:09:46;;;;;;;;;;;14.30;58.30;;;;;;5115355;28;20030;-63
2021/01/29 06:12:42;;;;;;;31.67;8.73;;;14.30;58.40;;;;;;5112424;28;19937;-63
2021/01/29 06:15:49;;;;;;;22.92;8.43;;;14.20;58.90;;;;;;5122637;28;20019;-62
2021/01/29 06:18:38;;;;;;;18.15;7.78;;;14.20;58.60;;;;;;5118561;27;20714;-62
2021/01/29 06:21:27;;;;;;;19.42;8.27;;;14.20;58.90;;;;;;5123461;27;20037;-62
2021/01/29 06:24:30;;;;;;;23.08;8.93;;;14.10;59.50;;;;;;5118215;27;20033;-63
2021/01/29 06:27:23;;;;;;;24.45;8.18;;;14.10;59.60;;;;;;5117406;27;20072;-62
2021/01/29 06:30:26;;;;;;;24.25;10.52;;;14.00;59.80;;;;;;5125927;27;20047;-62
2021/01/29 06:33:17;;;;;;;34.70;11.70;;;14.00;60.50;;;;;;5122186;27;20115;-61
2021/01/29 06:35:47;;;;;;;28.40;11.02;;;13.90;61.10;;;;;;5112394;27;20106;-62
2021/01/29 06:38:32;;;;;;;24.38;8.25;;;14.00;62.10;;;;;;5116556;27;20058;-63
2021/01/29 06:41:16;;;;;;;30.55;7.50;;;13.90;63.30;;;;;;5140107;27;20027;-62
2021/01/29 06:44:00;;;;;;;24.10;7.47;;;13.90;64.20;;;;;;5107807;28;20099;-63
2021/01/29 06:46:33;;;;;;;25.40;7.78;;;13.90;65.30;;;;;;5133160;27;20023;-63
2021/01/29 06:49:09;;;;;;;18.63;6.93;;;13.90;66.20;;;;;;5131163;27;20140;-62
2021/01/29 06:51:50;;;;;;;16.48;6.30;;;13.80;67.00;;;;;;5125362;27;20016;-63
2021/01/29 06:55:06;;;;;;;24.98;7.90;;;13.80;67.60;;;;;;5117576;27;20103;-62
2021/01/29 06:58:18;;;;;;;22.48;7.72;;;13.70;68.70;;;;;;5081178;27;20069;-62
2021/01/29 07:01:21;;;;;;;22.75;7.90;;;13.70;69.50;;;;;;5074372;28;20039;-62
2021/01/29 07:04:06;;;;;;;25.42;8.15;;;13.70;70.10;;;;;;5122585;27;20106;-61
2021/01/29 07:06:59;;;;;;;21.50;8.25;;;13.60;70.40;;;;;;5117523;27;20106;-61
2021/01/29 07:09:53;;;;;;;27.90;9.77;;;13.60;71.60;;;;;;5130156;27;20011;-62
2021/01/29 07:12:41;;;;;;;21.33;9.80;;;13.50;71.20;;;;;;5132338;27;20035;-61
2021/01/29 07:15:39;;;;;;;21.13;9.20;;;13.40;70.60;;;;;;5133213;27;20019;-61
2021/01/29 07:18:15;;;;;;;23.23;10.38;;;13.30;70.60;;;;;;5079744;27;20486;-62
2021/01/29 07:21:00;;;;;;;32.78;10.52;;;13.30;70.60;;;;;;5112028;28;20063;-62
2021/01/29 07:23:35;;;;;;;24.90;9.88;;;13.20;71.10;;;;;;5133105;27;20019;-62
2021/01/29 07:26:13;;;;;;;27.17;10.00;;;13.10;71.40;;;;;;5132203;27;20058;-62
2021/01/29 07:28:59;;;;;;;22.70;11.25;;;13.10;71.80;;;;;;5130672;27;20031;-61
2021/01/29 07:31:55;;;;;;;26.13;10.35;;;13.00;72.30;;;;;;5132835;27;20401;-62
2021/01/29 07:34:49;;;;;;;25.48;11.55;;;13.00;72.70;;;;;;5123745;27;20076;-62
2021/01/29 07:37:46;;;;;;;35.60;16.02;;;13.00;74.20;;;;;;5111690;27;20058;-62
2021/01/29 07:40:15;;;;;;;32.65;12.60;;;12.90;75.10;;;;;;5115949;27;20046;-62
2021/01/29 07:43:16;;;;;;;29.27;12.25;;;12.90;75.80;;;;;;5129562;27;20064;-61
2021/01/29 07:45:52;;;;;;;23.10;10.93;;;12.80;77.30;;;;;;5132219;27;20031;-62
2021/01/29 07:48:47;;;;;;;26.10;10.50;;;12.70;79.40;;;;;;5130211;27;20015;-62
2021/01/29 07:51:44;;;;;;;26.10;10.18;;;12.70;81.60;;;;;;5132636;27;20023;-61
2021/01/29 07:54:44;;;;;;;26.30;9.45;;;12.60;85.00;;;;;;5113710;27;20019;-62
2021/01/29 07:57:43;;;;;;;18.67;8.90;;;12.60;90.10;;;;;;5110547;27;20028;-63
2021/01/29 08:00:40;;;;;;;21.50;8.52;;;12.50;91.90;;;;;;5132199;27;20052;-62
2021/01/29 08:03:22;;;;;;;16.67;8.10;;;12.50;94.80;;;;;;5127187;27;20061;-64
2021/01/29 08:06:01;;;;;;;19.17;8.65;;;12.50;96.70;;;;;;5109142;27;20050;-63
2021/01/29 08:08:54;;;;;;;21.60;8.60;;;12.40;97.90;;;;;;5132028;27;20112;-62
2021/01/29 08:11:22;;;;;;;19.92;7.97;;;12.50;99.10;;;;;;5133516;27;20049;-63
2021/01/29 08:14:09;;;;;;;20.92;8.43;;;12.50;99.80;;;;;;5115089;27;20464;-63
2021/01/29 08:16:50;;;;;;;25.98;8.40;;;12.50;99.90;;;;;;5106385;28;20020;-61
2021/01/29 08:19:22;;;;;;;18.80;8.45;;;12.60;99.90;;;;;;5121753;27;20027;-62
2021/01/29 08:21:55;;;;;;;24.92;8.23;;;12.50;99.90;;;;;;5115259;27;20019;-63
2021/01/29 08:25:18;;;;;;;19.50;7.88;;;12.50;99.90;;;;;;5114029;27;20121;-63
2021/01/29 08:27:58;;;;;;;18.67;7.25;;;12.50;99.90;;;;;;5027284;28;20038;-62
2021/01/29 08:30:50;;;;;;;17.00;6.55;;;12.50;99.90;;;;;;5044175;28;20116;-62
2021/01/29 08:33:53;;;;;;;19.27;6.70;;;12.40;99.90;;;;;;5099156;27;20068;-61
2021/01/29 08:36:56;;;;;;;20.48;7.45;;;12.40;99.90;;;;;;5126411;27;20023;-61
2021/01/29 08:39:44;;;;;;;23.45;8.65;;;12.30;99.90;;;;;;5130890;27;20047;-60
2021/01/29 08:42:34;;;;;;;17.80;7.85;;;12.30;99.90;;;;;;5128524;27;20061;-62
2021/01/29 08:45:27;;;;;;;19.90;8.18;;;12.30;99.90;;;;;;5104389;27;20031;-63
2021/01/29 08:48:03;;;;;;;18.58;7.68;;;12.30;99.90;;;;;;5129941;27;20098;-61
2021/01/29 08:50:29;;;;;;;17.45;7.50;;;12.20;99.90;;;;;;5119747;27;20035;-62
2021/01/29 08:53:05;;;;;;;15.77;6.65;;;12.20;99.90;;;;;;5129124;27;20451;-63
2021/01/29 08:56:11;;;;;;;14.43;6.60;;;12.20;99.90;;;;;;5131893;27;20021;-62
2021/01/29 08:58:50;;;;;;;20.15;6.95;;;12.10;99.90;;;;;;5122533;27;20031;-62
2021/01/29 09:01:48;;;;;;;20.42;6.28;;;12.10;99.90;;;;;;5128349;27;20496;-63
2021/01/29 09:04:23;;;;;;;16.05;6.78;;;12.00;99.90;;;;;;5132175;27;20098;-61
2021/01/29 09:06:53;;;;;;;20.58;6.88;;;12.00;99.90;;;;;;5112775;27;20055;-64
2021/01/29 09:09:25;;;;;;;20.80;6.63;;;12.00;99.90;;;;;;5131876;27;20105;-61
2021/01/29 09:11:54;;;;;;;21.35;7.07;;;12.00;99.90;;;;;;5128375;27;20042;-61
2021/01/29 09:14:27;;;;;;;18.00;6.88;;;12.00;99.90;;;;;;5125046;27;20019;-62
2021/01/29 09:17:16;;;;;;;18.00;6.88;;;12.10;99.90;;;;;;5130121;27;20023;-62
2021/01/29 09:19:57;;;;;;;18.08;7.35;;;12.00;99.90;;;;;;5124356;27;20038;-63
2021/01/29 09:23:04;;;;;;;19.33;7.72;;;12.10;99.90;;;;;;5129401;27;20019;-60
2021/01/29 09:25:52;;;;;;;20.30;7.50;;;12.00;99.90;;;;;;5128696;27;20046;-62
2021/01/29 09:28:33;;;;;;;18.00;7.20;;;12.00;99.90;;;;;;5119238;27;20030;-61
2021/01/29 09:31:10;;;;;;;19.45;7.72;;;12.10;99.90;;;;;;5118832;27;20023;-62
2021/01/29 09:33:43;;;;;;;20.83;7.47;;;12.10;99.90;;;;;;5118311;27;20029;-64
2021/01/29 09:36:26;;;;;;;15.27;6.88;;;12.10;99.90;;;;;;5113607;27;20582;-61
2021/01/29 09:39:09;;;;;;;21.02;7.25;;;12.00;99.90;;;;;;5127551;27;20077;-63
2021/01/29 09:42:10;;;;;;;22.77;7.20;;;12.00;99.90;;;;;;5128723;27;20031;-63
2021/01/29 09:44:45;;;;;;;16.45;7.30;;;12.00;99.90;;;;;;5090125;27;20471;-61
2021/01/29 09:47:16;;;;;;;19.67;8.10;;;12.00;99.90;;;;;;5130247;27;20419;-65
2021/01/29 09:49:44;;;;;;;20.75;7.93;;;12.00;99.90;;;;;;5129353;28;20102;-61
2021/01/29 09:52:23;;;;;;;19.90;7.05;;;12.00;99.90;;;;;;5128382;27;20106;-63
2021/01/29 09:54:55;;;;;;;24.25;7.80;;;11.90;99.90;;;;;;5117607;28;20011;-61
2021/01/29 09:57:24;;;;;;;16.90;8.43;;;11.80;99.90;;;;;;5130887;28;20007;-62
2021/01/29 09:59:57;;;;;;;20.30;8.13;;;11.80;99.90;;;;;;5129060;28;20023;-62
2021/01/29 10:02:35;;;;;;;18.95;8.25;;;11.70;99.90;;;;;;5130701;28;20028;-62
2021/01/29 10:05:11;;;;;;;21.98;8.63;;;11.70;99.90;;;;;;5114635;28;20503;-63
2021/01/29 10:07:44;;;;;;;23.83;9.65;;;11.70;99.90;;;;;;5132736;28;20008;-60
2021/01/29 10:11:10;;;;;;;21.05;10.02;;;11.70;99.90;;;;;;5115088;28;20027;-62
2021/01/29 10:13:47;;;;;;;19.63;8.13;;;11.70;99.90;;;;;;5074837;28;20162;-62
2021/01/29 10:16:19;;;;;;;22.85;9.18;;;11.70;99.90;;;;;;5127803;28;20030;-62
2021/01/29 10:19:08;;;;;;;27.88;9.10;;;11.70;99.90;;;;;;5132140;28;20068;-64
2021/01/29 10:21:57;;;;;;;24.98;9.18;;;11.70;99.90;;;;;;5130861;28;20040;-63
2021/01/29 10:24:58;;;;;;;18.75;8.07;;;11.60;99.90;;;;;;5121247;28;20035;-59
2021/01/29 10:27:44;;;;;;;21.17;8.80;;;11.50;99.90;;;;;;5026889;28;20381;-63
2021/01/29 10:30:24;;;;;;;20.15;7.88;;;11.60;99.90;;;;;;5129134;28;20378;-63
2021/01/29 10:33:03;;;;;;;24.77;8.77;;;11.50;99.90;;;;;;5099619;28;20024;-60
2021/01/29 10:35:58;;;;;;;15.50;8.10;;;11.40;99.90;;;;;;5127251;28;20088;-62
2021/01/29 10:38:39;;;;;;;24.55;9.00;;;11.40;99.90;;;;;;5112260;28;20035;-62
2021/01/29 10:41:25;;;;;;;23.58;8.40;;;11.30;99.90;;;;;;5125590;28;20035;-60
2021/01/29 10:44:09;;;;;;;25.92;9.95;;;11.30;99.90;;;;;;5128033;28;20021;-62
2021/01/29 10:46:54;;;;;;;23.95;9.57;;;11.30;99.90;;;;;;5130132;28;20027;-64
2021/01/29 10:49:37;;;;;;;22.63;10.07;;;11.30;99.90;;;;;;5128178;28;20431;-62
2021/01/29 10:52:35;;;;;;;17.75;9.48;;;11.20;99.90;;;;;;5128118;28;20076;-62
2021/01/29 10:55:26;;;;;;;26.73;9.88;;;11.20;99.90;;;;;;5131842;28;20029;-63
2021/01/29 10:58:21;;;;;;;25.00;9.45;;;11.10;99.90;;;;;;5122730;28;20043;-63
2021/01/29 11:01:04;;;;;;;22.48;9.07;;;11.10;99.90;;;;;;5070376;28;20072;-63
2021/01/29 11:03:46;;;;;;;23.60;9.18;;;11.20;99.90;;;;;;5120572;27;20019;-63
2021/01/29 11:06:17;;;;;;;25.65;9.57;;;11.20;99.90;;;;;;5132461;27;20076;-61
2021/01/29 11:08:47;;;;;;;18.05;9.20;;;11.10;99.90;;;;;;5131533;27;20408;-63
2021/01/29 11:11:32;;;;;;;18.75;9.27;;;11.00;99.90;;;;;;5134789;27;20020;-63
2021/01/29 11:14:27;;;;;;;19.80;9.40;;;11.00;99.90;;;;;;5133732;27;20026;-63
2021/01/29 11:17:15;;;;;;;27.65;9.57;;;11.10;99.90;;;;;;5124401;27;20015;-62
2021/01/29 11:19:49;;;;;;;20.08;8.95;;;11.10;99.90;;;;;;5128232;27;20031;-63
2021/01/29 11:22:20;;;;;;;22.55;10.10;;;11.00;99.90;;;;;;5132801;27;20475;-61
2021/01/29 11:25:21;;;;;;;19.15;8.50;;;11.00;99.90;;;;;;5128418;27;20031;-63
2021/01/29 11:27:53;;;;;;;40.67;9.88;;;10.90;99.90;;;;;;5126002;27;20023;-63
2021/01/29 11:30:37;;;;;;;24.90;9.98;;;10.90;99.90;;;;;;5132842;27;20019;-62
2021/01/29 11:33:09;;;;;;;20.17;8.88;;;10.90;99.90;;;;;;5131935;27;20035;-62
2021/01/29 11:35:54;;;;;;;17.15;8.93;;;10.90;99.90;;;;;;5133535;27;20379;-63
2021/01/29 11:38:43;;;;;;;23.40;10.68;;;10.90;99.90;;;;;;5132091;27;20464;-62
2021/01/29 11:41:49;;;;;;;19.42;9.48;;;10.80;99.90;;;;;;5129319;27;20578;-63
2021/01/29 11:44:40;;;;;;;23.70;9.65;;;10.80;99.90;;;;;;5132286;27;20504;-63
2021/01/29 11:47:32;;;;;;;23.33;9.60;;;10.70;99.90;;;;;;5105572;28;20034;-62
2021/01/29 11:50:12;;;;;;;25.67;11.15;;;10.60;99.90;;;;;;5128169;27;20106;-61
2021/01/29 11:52:47;;;;;;;22.33;10.60;;;10.70;99.90;;;;;;5129807;27;20041;-62
2021/01/29 11:55:20;;;;;;;27.35;11.18;;;10.70;99.90;;;;;;5133464;27;20375;-62
2021/01/29 11:58:00;;;;;;;28.45;10.18;;;10.70;99.90;;;;;;5134073;27;20019;-61
2021/01/29 12:00:34;;;;;;;22.38;10.25;;;10.80;99.90;;;;;;5133542;27;20062;-62
2021/01/29 12:03:21;;;;;;;20.05;10.38;;;10.80;99.90;;;;;;5129301;27;20103;-61
2021/01/29 12:05:59;;;;;;;23.35;10.15;;;10.70;99.90;;;;;;5133124;27;20032;-60
2021/01/29 12:08:28;;;;;;;22.25;10.23;;;10.70;99.90;;;;;;5120901;27;20056;-62
2021/01/29 12:11:24;;;;;;;20.02;9.32;;;10.60;99.90;;;;;;5122704;27;20041;-62
2021/01/29 12:14:02;;;;;;;20.08;9.82;;;10.80;99.90;;;;;;5131387;27;20027;-61
2021/01/29 12:16:33;;;;;;;19.83;10.18;;;10.80;99.90;;;;;;5117833;27;20050;-62
2021/01/29 12:19:01;;;;;;;20.45;9.57;;;10.90;99.90;;;;;;5142894;27;20019;-62
2021/01/29 12:21:47;;;;;;;22.27;9.57;;;10.80;99.90;;;;;;5120408;27;20073;-62
2021/01/29 12:24:28;;;;;;;17.42;9.23;;;10.80;99.90;;;;;;5121392;27;20873;-63
2021/01/29 12:27:09;;;;;;;24.90;9.63;;;10.90;99.90;;;;;;5126823;27;20023;-63
2021/01/29 12:29:46;;;;;;;21.48;8.63;;;10.90;99.90;;;;;;5130523;27;20033;-62
2021/01/29 12:32:22;;;;;;;20.45;9.05;;;10.90;99.90;;;;;;5125636;27;20031;-61
2021/01/29 12:35:10;;;;;;;18.95;9.57;;;10.90;99.90;;;;;;5131042;27;20364;-61
2021/01/29 12:37:57;;;;;;;17.40;8.88;;;11.00;99.90;;;;;;5133724;27;20027;-60
2021/01/29 12:40:37;;;;;;;20.20;10.02;;;10.90;99.90;;;;;;5128634;27;20474;-64
2021/01/29 12:43:25;;;;;;;18.08;9.73;;;10.90;99.90;;;;;;5105028;28;20460;-62
2021/01/29 12:46:08;;;;;;;18.45;11.57;;;11.00;99.90;;;;;;5097634;27;20374;-61
2021/01/29 12:48:49;;;;;;;24.15;13.80;;;11.00;99.90;;;;;;5129944;27;20015;-62
2021/01/29 12:51:30;;;;;;;28.25;16.23;;;11.10;99.90;;;;;;5130504;27;20029;-62
2021/01/29 12:54:06;;;;;;;21.17;14.48;;;11.10;99.90;;;;;;5132588;27;20585;-61
2021/01/29 12:56:39;;;;;;;32.40;20.10;;;11.10;99.90;;;;;;5114543;27;20513;-60
2021/01/29 12:59:11;;;;;;;24.50;14.00;;;11.10;99.90;;;;;;5127895;27;20023;-62
2021/01/29 13:01:41;;;;;;;23.05;13.30;;;11.00;99.90;;;;;;5130483;27;20126;-62
2021/01/29 13:04:25;;;;;;;19.10;11.45;;;11.10;99.90;;;;;;5132741;27;20042;-62
2021/01/29 13:07:20;;;;;;;25.60;14.60;;;11.10;99.90;;;;;;5112337;27;20019;-61
2021/01/29 13:10:06;;;;;;;22.52;15.75;;;11.10;99.90;;;;;;5130799;27;20023;-62
2021/01/29 13:12:43;;;;;;;22.92;12.52;;;11.10;99.90;;;;;;5125846;27;20034;-62
2021/01/29 13:15:31;;;;;;;19.80;11.27;;;11.10;99.90;;;;;;5127799;27;20543;-63
2021/01/29 13:18:14;;;;;;;21.10;12.02;;;11.20;99.90;;;;;;5132429;27;20076;-62
2021/01/29 13:20:47;;;;;;;17.13;8.50;;;11.10;99.90;;;;;;5130300;27;20027;-62
2021/01/29 13:23:23;;;;;;;14.23;7.38;;;11.20;99.90;;;;;;5130230;27;20050;-62
2021/01/29 13:26:11;;;;;;;15.52;6.63;;;11.20;99.90;;;;;;5130805;27;20121;-62
2021/01/29 13:28:40;;;;;;;16.55;7.00;;;11.30;99.90;;;;;;5129068;27;20431;-62
2021/01/29 13:31:20;;;;;;;14.35;6.55;;;11.30;99.90;;;;;;5116045;27;20020;-62
2021/01/29 13:33:53;;;;;;;14.43;6.07;;;11.30;99.90;;;;;;5082928;28;20129;-62
2021/01/29 13:36:35;;;;;;;23.50;15.75;;;11.30;99.90;;;;;;5129140;27;20427;-62
2021/01/29 13:39:32;;;;;;;25.17;14.48;;;11.30;99.90;;;;;;5125600;27;20461;-62
2021/01/29 13:42:38;;;;;;;14.13;8.40;;;11.30;99.90;;;;;;5108616;27;20510;-61
2021/01/29 13:45:07;;;;;;;12.55;6.75;;;11.30;99.90;;;;;;5109802;28;20012;-61
2021/01/29 13:47:38;;;;;;;12.43;6.05;;;11.40;99.90;;;;;;5120630;27;20044;-62